Time;durP1;ratioP1;P1;durP2;ratioP2;P2;SDS_P1;SDS_P2;PMS_P1;PMS_P2;Temp;Humidity;BMP_temperature;BMP_pressure;BME280_temperature;BME280_humidity;BME280_pressure;Samples;Min_cycle;Max_cycle;Signal;HPM_P1;HPM_P2
2021/03/19 00:00:16;;;;;;;10.43;4.00;;;;;;;-1.57;100.00;101428.28;5013301;28;20314;-77
2021/03/19 00:02:42;;;;;;;11.87;4.30;;;;;;;-1.49;100.00;101427.06;5012038;28;20288;-77
2021/03/19 00:05:14;;;;;;;13.30;4.00;;;;;;;-1.52;100.00;101421.75;5010718;28;20283;-78
2021/03/19 00:07:48;;;;;;;8.77;3.35;;;;;;;-1.40;100.00;101427.63;5012053;28;20029;-77
2021/03/19 00:10:18;;;;;;;13.53;4.20;;;;;;;-1.39;100.00;101431.97;5010450;28;20029;-77
2021/03/19 00:12:45;;;;;;;10.73;3.77;;;;;;;-1.42;100.00;101436.91;5011021;28;20291;-77
2021/03/19 00:15:11;;;;;;;9.13;3.87;;;;;;;-1.43;100.00;101441.94;5011997;28;20296;-77
2021/03/19 00:17:37;;;;;;;12.50;4.80;;;;;;;-1.44;100.00;101446.19;5011246;28;20257;-77
2021/03/19 00:20:06;;;;;;;12.20;3.83;;;;;;;-1.44;100.00;101445.31;5011321;28;20269;-78
2021/03/19 00:22:31;;;;;;;10.83;3.80;;;;;;;-1.26;100.00;101437.03;5009467;28;20423;-78
2021/03/19 00:24:57;;;;;;;11.87;3.50;;;;;;;-1.29;100.00;101444.56;5012194;28;20356;-77
2021/03/19 00:27:23;;;;;;;11.90;4.60;;;;;;;-1.33;100.00;101444.25;5008797;28;20034;-78
2021/03/19 00:29:48;;;;;;;9.10;3.63;;;;;;;-1.21;100.00;101440.78;5012975;28;20058;-77
2021/03/19 00:32:14;;;;;;;8.53;3.63;;;;;;;-1.25;100.00;101443.06;5010339;28;20034;-78
2021/03/19 00:34:39;;;;;;;7.83;3.00;;;;;;;-1.28;100.00;101445.44;5012844;28;20391;-78
2021/03/19 00:37:05;;;;;;;8.03;3.63;;;;;;;-1.33;100.00;101449.38;5010797;28;20029;-78
2021/03/19 00:39:30;;;;;;;7.20;3.30;;;;;;;-1.36;100.00;101434.69;5010726;28;20060;-78
2021/03/19 00:41:56;;;;;;;9.07;4.23;;;;;;;-1.38;100.00;101431.16;5011708;28;20029;-78
2021/03/19 00:44:22;;;;;;;8.20;3.40;;;;;;;-1.43;100.00;101434.25;5011499;28;20467;-77
2021/03/19 00:46:47;;;;;;;8.63;3.37;;;;;;;-1.28;100.00;101443.75;5011147;28;20030;-77
2021/03/19 00:49:13;;;;;;;10.17;3.03;;;;;;;-1.36;100.00;101438.94;5009738;28;20022;-78
2021/03/19 00:51:38;;;;;;;7.87;3.00;;;;;;;-1.45;100.00;101443.50;5011676;28;20052;-77
2021/03/19 00:54:04;;;;;;;7.77;3.17;;;;;;;-1.51;100.00;101433.78;4994248;28;20065;-77
2021/03/19 00:56:30;;;;;;;6.93;2.70;;;;;;;-1.45;100.00;101438.38;5011002;28;20075;-77
2021/03/19 00:58:55;;;;;;;7.10;3.30;;;;;;;-1.49;100.00;101440.75;5012361;28;20068;-77
2021/03/19 01:01:21;;;;;;;7.23;3.50;;;;;;;-1.54;100.00;101438.72;5012715;28;20054;-77
2021/03/19 01:03:46;;;;;;;16.20;3.13;;;;;;;-1.49;100.00;101442.44;5008881;28;20114;-78
2021/03/19 01:06:12;;;;;;;8.07;3.03;;;;;;;-1.56;100.00;101445.44;5010543;28;20081;-78
2021/03/19 01:08:37;;;;;;;8.67;3.23;;;;;;;-1.59;100.00;101442.66;5010172;28;20030;-78
2021/03/19 01:11:03;;;;;;;11.70;3.83;;;;;;;-1.62;100.00;101445.03;5009953;28;20022;-77
2021/03/19 01:13:29;;;;;;;10.70;3.77;;;;;;;-1.50;100.00;101444.13;5009385;28;20552;-78
2021/03/19 01:15:55;;;;;;;10.80;3.43;;;;;;;-1.43;100.00;101445.41;5010661;28;20121;-78
2021/03/19 01:18:26;;;;;;;10.63;3.73;;;;;;;-1.37;100.00;101445.75;5003622;28;20427;-77
2021/03/19 01:20:51;;;;;;;10.93;3.47;;;;;;;-1.36;100.00;101455.22;4992321;28;20280;-77
2021/03/19 01:23:18;;;;;;;7.77;3.53;;;;;;;-1.37;100.00;101453.44;4991025;28;20805;-77
2021/03/19 01:25:44;;;;;;;7.27;3.10;;;;;;;-1.36;100.00;101449.22;4990322;28;20076;-77
2021/03/19 01:28:10;;;;;;;6.63;2.87;;;;;;;-1.38;100.00;101449.13;4990239;28;21021;-77
2021/03/19 01:30:38;;;;;;;10.43;4.13;;;;;;;-1.44;100.00;101455.56;4993778;28;20084;-77
2021/03/19 01:33:05;;;;;;;6.73;2.97;;;;;;;-1.44;100.00;101456.44;4991393;28;20103;-77
2021/03/19 01:35:32;;;;;;;5.33;2.57;;;;;;;-1.42;100.00;101451.41;4991992;28;20631;-77
2021/03/19 01:37:58;;;;;;;9.73;3.20;;;;;;;-1.47;100.00;101461.38;4993429;28;20343;-77
2021/03/19 01:40:28;;;;;;;11.57;3.00;;;;;;;-1.41;100.00;101460.88;4991428;28;20297;-77
2021/03/19 01:42:58;;;;;;;6.63;3.30;;;;;;;-1.40;100.00;101472.91;4989086;28;20045;-77
2021/03/19 01:46:04;;;;;;;7.40;2.97;;;;;;;-1.34;100.00;101479.28;4993956;28;20376;-77
2021/03/19 01:49:07;;;;;;;10.53;3.37;;;;;;;-1.31;100.00;101484.63;4892692;29;20336;-77
2021/03/19 01:52:23;;;;;;;7.97;2.90;;;;;;;-1.32;100.00;101487.97;4988633;28;20354;-78
2021/03/19 01:55:26;;;;;;;6.03;2.93;;;;;;;-1.45;100.00;101495.72;4947906;28;20058;-77
2021/03/19 01:58:29;;;;;;;9.43;3.35;;;;;;;-1.44;100.00;101497.50;4987996;28;20273;-78
2021/03/19 02:01:32;;;;;;;5.90;2.72;;;;;;;-1.46;100.00;101499.03;4974749;28;20058;-78
2021/03/19 02:04:16;;;;;;;;;;;;;;;-1.45;100.00;101503.41;4985893;28;20034;-77
2021/03/19 02:07:19;;;;;;;8.73;2.80;;;;;;;-1.44;100.00;101504.28;4992216;28;19914;-77
2021/03/19 02:10:22;;;;;;;5.28;2.50;;;;;;;-1.42;100.00;101501.03;4988592;28;20281;-78
2021/03/19 02:13:24;;;;;;;7.15;2.53;;;;;;;-1.47;100.00;101492.13;4990404;28;20471;-77
2021/03/19 02:16:27;;;;;;;5.60;2.50;;;;;;;-1.51;100.00;101492.75;4989767;28;20034;-78
2021/03/19 02:19:30;;;;;;;5.88;2.80;;;;;;;-1.51;100.00;101492.75;4998931;28;20061;-77
2021/03/19 02:22:32;;;;;;;6.72;3.10;;;;;;;-1.55;100.00;101493.38;5005810;28;20041;-77
2021/03/19 02:25:35;;;;;;;6.00;2.83;;;;;;;-1.50;100.00;101497.09;5008393;28;20032;-77
2021/03/19 02:28:38;;;;;;;5.38;2.53;;;;;;;-1.53;100.00;101512.28;5007981;28;20105;-77
2021/03/19 02:31:12;;;;;;;8.10;3.15;;;;;;;-1.60;100.00;101510.13;5005842;28;20026;-77
2021/03/19 02:34:10;;;;;;;5.90;3.03;;;;;;;-1.74;100.00;101506.69;5007110;28;20042;-77
2021/03/19 02:36:36;;;;;;;7.87;2.80;;;;;;;-1.78;100.00;101513.28;4973971;28;20304;-77
2021/03/19 02:39:02;;;;;;;6.13;2.57;;;;;;;-1.72;100.00;101514.47;5008291;28;20291;-77
2021/03/19 02:41:28;;;;;;;7.60;2.83;;;;;;;-1.73;100.00;101520.38;5008337;28;20022;-77
2021/03/19 02:43:53;;;;;;;11.97;2.93;;;;;;;-1.74;100.00;101531.44;5008463;28;20297;-77
2021/03/19 02:46:19;;;;;;;4.70;2.40;;;;;;;-1.83;100.00;101527.47;5008948;28;20026;-77
2021/03/19 02:48:44;;;;;;;7.80;3.10;;;;;;;-1.88;100.00;101523.75;5007725;28;20034;-77
2021/03/19 02:51:10;;;;;;;6.03;2.87;;;;;;;-1.88;100.00;101525.41;5009322;28;20088;-77
2021/03/19 02:53:37;;;;;;;10.07;3.00;;;;;;;-1.87;100.00;101530.63;5008906;28;20026;-78
2021/03/19 02:56:05;;;;;;;8.03;2.80;;;;;;;-1.81;100.00;101531.06;5008861;28;20038;-78
2021/03/19 02:58:30;;;;;;;8.43;3.53;;;;;;;-1.87;100.00;101525.50;5008364;28;20292;-77
2021/03/19 03:00:56;;;;;;;6.73;2.87;;;;;;;-1.93;100.00;101532.81;5008648;28;20980;-77
2021/03/19 03:03:22;;;;;;;5.93;2.57;;;;;;;-1.93;100.00;101530.25;5007452;28;20044;-77
2021/03/19 03:05:47;;;;;;;5.87;2.67;;;;;;;-1.89;100.00;101532.22;5008964;28;20112;-77
2021/03/19 03:08:18;;;;;;;8.07;3.00;;;;;;;-1.89;100.00;101537.34;5009767;28;20153;-77
2021/03/19 03:10:44;;;;;;;6.47;2.73;;;;;;;-1.81;100.00;101543.88;5008196;28;20028;-77
2021/03/19 03:13:11;;;;;;;7.13;2.80;;;;;;;-1.72;100.00;101545.22;5009499;28;20307;-77
2021/03/19 03:15:37;;;;;;;9.90;4.13;;;;;;;-1.79;100.00;101543.97;5008297;28;20366;-77
2021/03/19 03:18:04;;;;;;;6.93;2.90;;;;;;;-1.85;100.00;101552.13;5008948;28;20311;-77
2021/03/19 03:20:40;;;;;;;6.53;2.73;;;;;;;-1.87;100.00;101556.28;4992747;28;20300;-77
2021/03/19 03:23:06;;;;;;;7.60;3.00;;;;;;;-1.92;100.00;101559.34;5007883;28;20362;-77
2021/03/19 03:25:33;;;;;;;6.60;2.70;;;;;;;-2.02;100.00;101570.66;5009910;28;21271;-77
2021/03/19 03:27:59;;;;;;;4.60;2.40;;;;;;;-1.92;100.00;101575.59;5012106;28;20287;-78
2021/03/19 03:30:29;;;;;;;7.47;3.03;;;;;;;-2.01;100.00;101574.09;5009676;28;20276;-79
2021/03/19 03:32:55;;;;;;;5.80;2.80;;;;;;;-2.11;100.00;101576.06;5008314;28;20175;-78
2021/03/19 03:35:23;;;;;;;8.37;2.80;;;;;;;-2.18;100.00;101566.22;5008715;28;20363;-78
2021/03/19 03:37:49;;;;;;;9.07;2.80;;;;;;;-2.11;100.00;101580.28;4992156;28;20030;-78
2021/03/19 03:40:17;;;;;;;7.80;2.70;;;;;;;-2.09;100.00;101573.59;5008786;28;20300;-78
2021/03/19 03:42:43;;;;;;;5.57;2.70;;;;;;;-2.07;100.00;101584.81;5010329;28;20326;-78
2021/03/19 03:45:12;;;;;;;5.03;2.13;;;;;;;-1.86;100.00;101578.56;5013900;28;20315;-78
2021/03/19 03:47:38;;;;;;;8.03;2.80;;;;;;;-1.79;100.00;101580.75;5011184;28;20456;-78
2021/03/19 03:50:13;;;;;;;5.30;2.50;;;;;;;-1.78;100.00;101579.06;5012945;28;20315;-78
2021/03/19 03:52:39;;;;;;;6.17;2.17;;;;;;;-1.86;100.00;101588.81;5011173;28;20117;-78
2021/03/19 03:55:06;;;;;;;12.13;2.73;;;;;;;-1.91;100.00;101582.50;5011652;28;20363;-78
2021/03/19 03:57:31;;;;;;;8.37;2.13;;;;;;;-1.91;100.00;101585.06;5015903;28;20033;-78
2021/03/19 03:59:57;;;;;;;8.53;2.40;;;;;;;-1.95;100.00;101583.06;5011607;28;20300;-78
2021/03/19 04:02:26;;;;;;;5.17;2.50;;;;;;;-1.95;100.00;101583.06;5012319;28;20116;-78
2021/03/19 04:04:52;;;;;;;5.80;2.50;;;;;;;-2.00;100.00;101581.88;5008406;28;20026;-78
2021/03/19 04:07:18;;;;;;;6.27;2.57;;;;;;;-2.05;100.00;101584.94;5012551;28;20352;-78
2021/03/19 04:09:43;;;;;;;4.57;2.27;;;;;;;-2.07;100.00;101587.38;5011678;28;20599;-78
2021/03/19 04:12:11;;;;;;;5.10;2.23;;;;;;;-2.15;100.00;101588.56;5014721;28;20040;-78
2021/03/19 04:14:38;;;;;;;5.83;2.33;;;;;;;-2.15;100.00;101584.34;5011258;28;20026;-78
2021/03/19 04:17:10;;;;;;;6.13;2.30;;;;;;;-2.10;100.00;101592.31;5015815;28;20376;-78
2021/03/19 04:19:37;;;;;;;4.93;2.55;;;;;;;-2.05;100.00;101595.19;5008873;28;20705;-78
2021/03/19 04:22:04;;;;;;;6.20;2.13;;;;;;;-1.95;100.00;101593.31;5011370;28;20117;-78
2021/03/19 04:24:30;;;;;;;6.03;2.70;;;;;;;-1.95;100.00;101593.31;5011287;28;20277;-78
2021/03/19 04:26:55;;;;;;;8.97;2.60;;;;;;;-1.90;100.00;101601.31;5010042;28;20303;-78
2021/03/19 04:29:21;;;;;;;9.33;2.57;;;;;;;-1.91;100.00;101597.88;5011888;28;20467;-78
2021/03/19 04:31:46;;;;;;;5.03;2.47;;;;;;;-1.98;100.00;101613.63;5010407;28;20088;-79
2021/03/19 04:34:12;;;;;;;5.50;2.57;;;;;;;-1.92;100.00;101606.34;5011974;28;20064;-78
2021/03/19 04:36:45;;;;;;;6.37;2.83;;;;;;;-1.91;100.00;101620.94;5009465;28;20406;-78
2021/03/19 04:39:16;;;;;;;4.77;2.40;;;;;;;-1.91;100.00;101615.81;5008836;28;20437;-78
2021/03/19 04:41:45;;;;;;;7.80;3.43;;;;;;;-1.87;100.00;101615.22;5005346;28;20324;-78
2021/03/19 04:44:11;;;;;;;5.77;2.47;;;;;;;-1.85;100.00;101611.06;5011130;28;20291;-79
2021/03/19 04:46:36;;;;;;;7.13;2.70;;;;;;;-1.90;100.00;101612.47;5012611;28;20784;-78
2021/03/19 04:49:02;;;;;;;6.30;2.67;;;;;;;-1.87;100.00;101617.78;5009164;28;20528;-78
2021/03/19 04:51:28;;;;;;;5.10;2.43;;;;;;;-1.86;100.00;101611.88;5010331;28;20505;-78
2021/03/19 04:53:54;;;;;;;9.00;2.77;;;;;;;-1.91;100.00;101626.06;5011400;28;20348;-78
2021/03/19 04:56:20;;;;;;;5.87;2.20;;;;;;;-1.91;100.00;101620.94;5008587;28;20036;-78
2021/03/19 04:58:46;;;;;;;5.27;2.67;;;;;;;-1.99;100.00;101626.34;5010016;28;20026;-78
2021/03/19 05:01:13;;;;;;;11.27;3.10;;;;;;;-1.97;100.00;101635.91;5008990;28;20323;-78
2021/03/19 05:03:38;;;;;;;10.83;3.40;;;;;;;-1.93;100.00;101632.78;5008833;28;20034;-78
2021/03/19 05:06:04;;;;;;;5.77;2.40;;;;;;;-2.04;100.00;101633.72;5010652;28;20281;-78
2021/03/19 05:08:30;;;;;;;6.43;2.50;;;;;;;-2.02;100.00;101642.41;5012412;28;20022;-78
2021/03/19 05:10:55;;;;;;;5.43;2.53;;;;;;;-1.89;100.00;101628.72;5009146;28;20029;-78
2021/03/19 05:13:21;;;;;;;6.40;2.73;;;;;;;-1.91;100.00;101631.19;5009561;28;20018;-78
2021/03/19 05:15:46;;;;;;;4.93;2.33;;;;;;;-1.92;100.00;101633.66;5012684;28;20475;-78
2021/03/19 05:18:12;;;;;;;5.80;2.60;;;;;;;-1.88;100.00;101638.19;5010144;28;20042;-78
2021/03/19 05:20:38;;;;;;;8.20;2.30;;;;;;;-1.86;100.00;101641.75;5010947;28;20033;-78
2021/03/19 05:23:15;;;;;;;9.37;3.17;;;;;;;-1.77;100.00;101640.69;5011472;28;20040;-77
2021/03/19 05:25:41;;;;;;;6.50;2.87;;;;;;;-1.73;100.00;101646.00;5008462;28;20034;-78
2021/03/19 05:28:06;;;;;;;5.83;3.07;;;;;;;-1.72;100.00;101640.97;5010062;28;20284;-77
2021/03/19 05:30:32;;;;;;;7.60;3.00;;;;;;;-1.70;100.00;101633.38;5006729;28;20018;-77
2021/03/19 05:33:01;;;;;;;7.33;3.03;;;;;;;-1.67;100.00;101641.28;5009656;28;20021;-78
2021/03/19 05:35:27;;;;;;;6.93;2.90;;;;;;;-1.64;100.00;101637.25;5010403;28;20029;-78
2021/03/19 05:37:52;;;;;;;7.83;2.80;;;;;;;-1.62;100.00;101639.91;5011571;28;20757;-78
2021/03/19 05:40:52;;;;;;;6.40;3.10;;;;;;;-1.62;100.00;101642.47;5010152;28;20026;-77
2021/03/19 05:43:30;;;;;;;6.53;3.10;;;;;;;-1.65;100.00;101649.97;4984849;28;20046;-78
2021/03/19 05:46:13;;;;;;;6.30;3.07;;;;;;;-1.60;100.00;101653.72;5012510;28;20314;-78
2021/03/19 05:49:01;;;;;;;6.83;3.33;;;;;;;-1.63;100.00;101653.50;5010550;28;20268;-78
2021/03/19 05:51:34;;;;;;;5.87;2.97;;;;;;;-1.61;100.00;101651.94;5009175;28;20708;-77
2021/03/19 05:54:14;;;;;;;7.97;3.07;;;;;;;-1.58;100.00;101652.13;5008573;28;20301;-78
2021/03/19 05:56:40;;;;;;;9.07;3.30;;;;;;;-1.65;100.00;101650.84;5011756;28;20732;-78
2021/03/19 05:59:05;;;;;;;6.90;3.57;;;;;;;-1.56;100.00;101661.72;5009263;28;20284;-78
2021/03/19 06:01:31;;;;;;;6.47;3.33;;;;;;;-1.47;100.00;101661.41;5008526;28;20300;-78
2021/03/19 06:04:00;;;;;;;7.43;3.37;;;;;;;-1.35;100.00;101661.31;5009519;28;20109;-78
2021/03/19 06:07:05;;;;;;;9.17;4.20;;;;;;;-1.23;100.00;101668.13;5007241;28;20025;-77
2021/03/19 06:09:36;;;;;;;7.60;3.20;;;;;;;-1.13;100.00;101664.47;4925776;29;20744;-78
2021/03/19 06:12:07;;;;;;;6.17;3.33;;;;;;;-1.09;100.00;101675.81;4928825;29;20390;-78
2021/03/19 06:14:46;;;;;;;6.70;3.00;;;;;;;-0.91;100.00;101679.56;4972416;28;20364;-77
2021/03/19 06:17:25;;;;;;;10.47;3.07;;;;;;;-0.80;100.00;101670.88;5009733;28;20287;-77
2021/03/19 06:20:10;;;;;;;9.80;3.27;;;;;;;-0.71;100.00;101680.84;5008703;28;20304;-77
2021/03/19 06:22:43;;;;;;;8.77;3.03;;;;;;;-0.65;100.00;101679.50;5007256;28;20280;-77
2021/03/19 06:25:39;;;;;;;7.37;3.53;;;;;;;-0.40;100.00;101684.47;4994081;28;20292;-77
2021/03/19 06:28:24;;;;;;;6.90;2.70;;;;;;;0.85;100.00;101686.75;5012390;28;20749;-78
2021/03/19 06:30:50;;;;;;;5.90;2.40;;;;;;;2.33;100.00;101697.28;5010117;28;20312;-78
2021/03/19 06:33:27;;;;;;;6.10;2.60;;;;;;;3.01;93.47;101716.09;4993640;28;20789;-78
2021/03/19 06:36:15;;;;;;;10.87;3.03;;;;;;;2.96;91.75;101709.84;5011516;28;20057;-78
2021/03/19 06:38:46;;;;;;;5.47;2.50;;;;;;;3.64;90.73;101717.38;5010941;28;20840;-78
2021/03/19 06:41:22;;;;;;;5.37;1.97;;;;;;;4.41;86.15;101720.84;5012316;28;20312;-78
2021/03/19 06:43:48;;;;;;;6.13;3.00;;;;;;;4.98;82.29;101729.28;5011955;28;20283;-79
2021/03/19 06:46:18;;;;;;;7.50;2.53;;;;;;;5.71;78.65;101733.88;5008890;28;20284;-77
2021/03/19 06:49:03;;;;;;;4.90;2.40;;;;;;;5.99;74.59;101743.59;5007784;28;20279;-77
2021/03/19 06:51:44;;;;;;;7.83;2.07;;;;;;;6.24;73.60;101754.88;5008198;28;20029;-77
2021/03/19 06:54:16;;;;;;;5.97;2.50;;;;;;;6.39;70.24;101761.50;5008351;28;20026;-76
2021/03/19 06:57:01;;;;;;;6.47;1.90;;;;;;;6.84;69.60;101763.94;4990468;28;20080;-77
2021/03/19 06:59:27;;;;;;;3.87;1.67;;;;;;;6.95;67.65;101775.56;5009866;28;20026;-78
2021/03/19 07:01:53;;;;;;;3.83;1.60;;;;;;;6.32;67.82;101762.13;5009152;28;20103;-77
2021/03/19 07:04:37;;;;;;;6.37;2.13;;;;;;;6.93;68.22;101772.03;5008011;28;20072;-77
2021/03/19 07:07:22;;;;;;;3.67;1.60;;;;;;;7.23;64.99;101792.09;5005530;28;20403;-78
2021/03/19 07:10:24;;;;;;;5.73;1.80;;;;;;;7.40;64.54;101787.44;5008834;28;20030;-77
2021/03/19 07:13:19;;;;;;;5.32;1.67;;;;;;;7.42;63.84;101789.25;5010303;28;20038;-77
2021/03/19 07:15:48;;;;;;;4.67;1.70;;;;;;;7.61;62.11;101794.19;5002306;28;20045;-77
2021/03/19 07:18:54;;;;;;;3.40;1.60;;;;;;;7.03;64.02;101794.06;5005335;28;20374;-77
2021/03/19 07:21:42;;;;;;;5.07;1.60;;;;;;;7.31;62.89;101790.63;5009182;28;20387;-78
2021/03/19 07:24:26;;;;;;;6.30;1.50;;;;;;;7.92;62.25;101792.53;5012195;28;20068;-76
2021/03/19 07:26:59;;;;;;;3.43;1.43;;;;;;;8.33;59.75;101790.22;5010190;28;20135;-78
2021/03/19 07:29:46;;;;;;;4.57;1.40;;;;;;;8.12;60.59;101788.81;5010931;28;20024;-77
2021/03/19 07:32:37;;;;;;;5.00;1.67;;;;;;;8.82;56.24;101803.78;5011512;28;20030;-77
2021/03/19 07:35:41;;;;;;;4.53;1.40;;;;;;;9.05;56.54;101801.78;5009761;28;20057;-78
2021/03/19 07:38:17;;;;;;;3.33;1.30;;;;;;;8.27;55.98;101801.38;4988658;28;20038;-76
2021/03/19 07:40:42;;;;;;;3.33;1.23;;;;;;;8.30;57.77;101805.78;5010862;28;20117;-77
2021/03/19 07:43:21;;;;;;;3.07;1.10;;;;;;;9.18;55.84;101802.97;4993503;28;20109;-77
2021/03/19 07:45:56;;;;;;;3.77;1.50;;;;;;;8.91;55.15;101802.28;5011053;28;20467;-79
2021/03/19 07:48:44;;;;;;;5.37;1.40;;;;;;;9.00;54.17;101805.13;5011793;28;20120;-77
2021/03/19 07:51:32;;;;;;;3.17;1.10;;;;;;;9.43;54.04;101812.28;5008696;28;20153;-78
2021/03/19 07:54:22;;;;;;;3.97;1.47;;;;;;;9.89;53.26;101821.19;5010258;28;20557;-78
2021/03/19 07:57:30;;;;;;;4.73;1.30;;;;;;;10.50;51.76;101823.41;5008569;28;20018;-78
2021/03/19 08:00:04;;;;;;;3.90;1.30;;;;;;;10.55;51.18;101821.78;4921883;29;20032;-78
2021/03/19 08:03:01;;;;;;;2.80;1.30;;;;;;;11.16;48.64;101837.72;5003457;28;20044;-78
2021/03/19 08:05:33;;;;;;;4.57;1.40;;;;;;;10.85;49.90;101841.53;5010868;28;20486;-77
2021/03/19 08:08:02;;;;;;;4.53;1.40;;;;;;;11.19;50.26;101836.91;5011484;28;20029;-77
2021/03/19 08:10:49;;;;;;;4.43;1.40;;;;;;;10.49;51.22;101836.44;5012797;28;20387;-78
2021/03/19 08:13:53;;;;;;;3.77;1.30;;;;;;;9.01;53.14;101838.22;5012611;28;20026;-77
2021/03/19 08:16:37;;;;;;;4.83;1.17;;;;;;;8.35;56.92;101835.50;4975043;28;20129;-78
2021/03/19 08:19:35;;;;;;;4.40;1.30;;;;;;;9.58;52.04;101848.34;5011796;28;20058;-77
2021/03/19 08:22:23;;;;;;;3.37;1.20;;;;;;;11.20;49.21;101846.50;5011645;28;20018;-77
2021/03/19 08:24:48;;;;;;;3.83;1.23;;;;;;;11.18;49.59;101843.00;5012475;28;20022;-77
2021/03/19 08:27:26;;;;;;;8.07;1.87;;;;;;;10.76;50.38;101842.22;5011807;28;20402;-78
2021/03/19 08:30:13;;;;;;;3.27;1.30;;;;;;;9.40;55.08;101847.03;5012218;28;20030;-77
2021/03/19 08:32:42;;;;;;;3.43;1.37;;;;;;;9.32;51.32;101853.78;5007254;28;20045;-77
2021/03/19 08:35:32;;;;;;;2.57;1.10;;;;;;;10.53;51.91;101853.97;5006982;28;20104;-77
2021/03/19 08:38:24;;;;;;;5.07;1.40;;;;;;;11.85;47.58;101859.81;5007752;28;20022;-77
2021/03/19 08:40:57;;;;;;;2.83;1.10;;;;;;;11.57;47.08;101866.34;5008906;28;20025;-77
2021/03/19 08:43:35;;;;;;;3.87;1.27;;;;;;;12.41;46.24;101876.34;5010503;28;20044;-77
2021/03/19 08:46:07;;;;;;;2.90;1.23;;;;;;;12.61;45.09;101866.13;4992141;28;20030;-77
2021/03/19 08:48:44;;;;;;;5.95;1.67;;;;;;;12.63;45.46;101861.75;5009408;28;20022;-77
2021/03/19 08:51:31;;;;;;;2.43;1.00;;;;;;;12.37;44.80;101873.69;5009111;28;20022;-77
2021/03/19 08:54:11;;;;;;;2.90;1.10;;;;;;;12.02;43.42;101866.22;5010550;28;20026;-78
2021/03/19 08:56:38;;;;;;;3.90;1.30;;;;;;;11.82;47.28;101862.41;5009078;28;20033;-77
2021/03/19 08:59:03;;;;;;;2.37;1.10;;;;;;;11.62;46.60;101876.03;5008524;28;20467;-78
2021/03/19 09:01:46;;;;;;;3.57;1.30;;;;;;;12.23;42.84;101882.22;5011239;28;20101;-79
2021/03/19 09:04:12;;;;;;;3.15;1.05;;;;;;;11.54;45.63;101871.53;5011596;28;20025;-80
2021/03/19 09:06:37;;;;;;;3.10;1.10;;;;;;;12.38;45.54;101886.81;5011524;28;20438;-79
2021/03/19 09:09:13;;;;;;;3.93;0.90;;;;;;;12.78;40.92;101888.19;5012099;28;20033;-79
2021/03/19 09:11:39;;;;;;;2.23;1.10;;;;;;;12.93;42.70;101891.84;5012542;28;20437;-79
2021/03/19 09:14:04;;;;;;;2.80;1.07;;;;;;;12.10;41.72;101890.78;5012085;28;20053;-79
2021/03/19 09:16:39;;;;;;;2.00;0.93;;;;;;;12.06;41.54;101899.47;5011719;28;20049;-78
2021/03/19 09:19:28;;;;;;;2.87;1.03;;;;;;;11.62;43.22;101898.72;5009899;28;20046;-79
2021/03/19 09:21:54;;;;;;;2.03;0.90;;;;;;;12.17;44.29;101897.88;5011018;28;20032;-79
2021/03/19 09:24:23;;;;;;;2.43;0.80;;;;;;;12.83;39.50;101907.47;5012812;28;20028;-79
2021/03/19 09:27:14;;;;;;;3.30;0.90;;;;;;;11.72;40.50;101898.91;5011596;28;20021;-79
2021/03/19 09:29:40;;;;;;;2.30;0.90;;;;;;;10.53;43.75;101886.22;5007022;28;20140;-78
2021/03/19 09:32:24;;;;;;;1.90;0.90;;;;;;;9.89;44.82;101896.97;5011211;28;20017;-79
2021/03/19 09:34:50;;;;;;;2.97;0.90;;;;;;;9.84;45.63;101896.00;5011473;28;20036;-79
2021/03/19 09:37:31;;;;;;;1.83;0.60;;;;;;;8.99;46.54;101905.13;5008079;28;20471;-79
2021/03/19 09:40:04;;;;;;;1.43;0.77;;;;;;;8.42;49.20;101900.00;5010381;28;20087;-78
2021/03/19 09:42:29;;;;;;;4.13;1.23;;;;;;;8.42;50.51;101900.00;5010771;28;20025;-78
2021/03/19 09:44:58;;;;;;;3.17;1.10;;;;;;;8.28;50.98;101890.88;5008416;28;20049;-78
2021/03/19 09:47:34;;;;;;;2.50;1.20;;;;;;;8.33;49.45;101899.69;5008143;28;20499;-78
2021/03/19 09:50:25;;;;;;;2.47;1.00;;;;;;;8.22;49.95;101897.66;5010384;28;20379;-79
2021/03/19 09:53:02;;;;;;;2.80;0.83;;;;;;;8.26;49.91;101902.97;5003370;28;20034;-78
2021/03/19 09:55:37;;;;;;;3.00;0.97;;;;;;;8.21;50.78;101898.47;5010879;28;20108;-78
2021/03/19 09:58:12;;;;;;;4.83;1.57;;;;;;;7.90;50.79;101898.38;5008845;28;20176;-78
2021/03/19 10:00:37;;;;;;;2.33;0.90;;;;;;;7.28;51.68;101892.00;5011096;28;20036;-78
2021/03/19 10:03:11;;;;;;;2.23;0.90;;;;;;;6.95;51.63;101894.31;5011137;28;20026;-78
2021/03/19 10:05:40;;;;;;;1.73;0.77;;;;;;;6.91;53.03;101903.72;5010665;28;20068;-77
2021/03/19 10:08:06;;;;;;;3.00;1.13;;;;;;;6.97;54.15;101903.03;5008376;28;20026;-78
2021/03/19 10:10:35;;;;;;;2.20;1.10;;;;;;;7.17;54.29;101901.16;5011113;28;20014;-78
2021/03/19 10:13:05;;;;;;;2.23;0.90;;;;;;;7.15;55.68;101902.78;5010358;28;20199;-78
2021/03/19 10:15:30;;;;;;;2.30;0.90;;;;;;;6.88;55.66;101903.59;5010089;28;20028;-79
2021/03/19 10:17:59;;;;;;;2.17;0.80;;;;;;;6.95;58.95;101897.78;5009307;28;20426;-79
2021/03/19 10:20:36;;;;;;;2.70;0.97;;;;;;;6.93;59.09;101904.66;5009842;28;20032;-79
2021/03/19 10:23:28;;;;;;;3.47;1.17;;;;;;;6.99;60.14;101902.25;5010344;28;20482;-78
2021/03/19 10:26:06;;;;;;;2.22;1.00;;;;;;;6.99;59.59;101904.88;5008492;28;20680;-78
2021/03/19 10:28:32;;;;;;;2.60;1.10;;;;;;;6.84;62.03;101896.53;5009353;28;20030;-78
2021/03/19 10:31:00;;;;;;;2.97;1.20;;;;;;;6.91;61.33;101893.31;5010287;28;20478;-78
2021/03/19 10:33:34;;;;;;;7.87;3.70;;;;;;;6.93;61.62;101891.66;5010226;28;20026;-78
2021/03/19 10:36:06;;;;;;;3.00;1.27;;;;;;;6.97;62.38;101893.53;5007169;28;20505;-78
2021/03/19 10:38:42;;;;;;;3.03;1.10;;;;;;;7.36;64.44;101885.31;5006679;28;20018;-78
2021/03/19 10:41:28;;;;;;;2.17;1.00;;;;;;;7.64;61.50;101900.16;5006470;28;20038;-79
2021/03/19 10:44:09;;;;;;;4.03;1.20;;;;;;;8.16;62.15;101886.16;5007854;28;20071;-79
2021/03/19 10:47:00;;;;;;;3.30;1.33;;;;;;;8.35;60.87;101892.84;5009842;28;20030;-78
2021/03/19 10:49:53;;;;;;;3.77;1.23;;;;;;;8.47;58.89;101901.00;5002483;28;20113;-78
2021/03/19 10:52:26;;;;;;;2.97;1.10;;;;;;;8.61;60.19;101902.34;5008636;28;20032;-79
2021/03/19 10:54:53;;;;;;;3.80;1.20;;;;;;;9.05;59.10;101892.22;5011825;28;20382;-78
2021/03/19 10:57:41;;;;;;;2.97;1.10;;;;;;;9.62;56.46;101894.59;5013360;28;20080;-78
2021/03/19 11:00:40;;;;;;;2.53;1.00;;;;;;;9.96;56.38;101898.91;5011732;28;20513;-79
2021/03/19 11:03:07;;;;;;;3.27;1.33;;;;;;;10.05;54.76;101899.09;5002814;28;20096;-78
2021/03/19 11:05:53;;;;;;;4.63;1.20;;;;;;;9.61;55.30;101911.09;4998407;28;20041;-79
2021/03/19 11:08:19;;;;;;;3.37;1.60;;;;;;;9.20;57.40;101910.91;5014954;28;20029;-78
2021/03/19 11:10:49;;;;;;;3.43;1.20;;;;;;;9.36;54.73;101913.09;5011981;28;20025;-78
2021/03/19 11:13:14;;;;;;;3.30;1.50;;;;;;;9.42;55.70;101907.13;5013110;28;20100;-78
2021/03/19 11:15:43;;;;;;;4.17;1.20;;;;;;;9.48;55.58;101907.31;5013468;28;20121;-78
2021/03/19 11:18:29;;;;;;;2.23;1.10;;;;;;;9.76;54.19;101907.97;5019560;28;20088;-78
2021/03/19 11:21:07;;;;;;;3.40;1.80;;;;;;;9.59;55.32;101899.75;5017775;28;20109;-78
2021/03/19 11:23:48;;;;;;;3.27;1.30;;;;;;;9.64;55.50;101913.78;4997188;28;20042;-78
2021/03/19 11:26:30;;;;;;;2.63;1.20;;;;;;;9.74;55.73;101913.16;4993606;28;20026;-78
2021/03/19 11:29:18;;;;;;;5.17;1.60;;;;;;;9.23;56.02;101916.22;5012490;28;20028;-78
2021/03/19 11:32:03;;;;;;;7.00;1.60;;;;;;;8.88;58.09;101912.66;5016420;28;20026;-78
2021/03/19 11:34:33;;;;;;;3.87;1.80;;;;;;;8.50;60.42;101917.66;5013308;28;20026;-78
2021/03/19 11:37:07;;;;;;;4.70;1.40;;;;;;;8.46;58.36;101925.31;5013863;28;21041;-78
2021/03/19 11:39:53;;;;;;;4.63;1.80;;;;;;;8.67;59.76;101933.78;5013307;28;20441;-78
2021/03/19 11:42:23;;;;;;;3.53;1.30;;;;;;;8.58;59.85;101928.28;5017780;28;20067;-78
2021/03/19 11:44:55;;;;;;;4.10;1.50;;;;;;;8.47;59.70;101919.25;5013248;28;20017;-78
2021/03/19 11:47:30;;;;;;;4.03;1.43;;;;;;;8.15;61.47;101920.88;5014893;28;20052;-78
2021/03/19 11:50:14;;;;;;;4.83;1.60;;;;;;;8.43;61.35;101920.91;5013254;28;20273;-78
2021/03/19 11:52:40;;;;;;;4.20;1.70;;;;;;;8.40;60.15;101925.16;5013578;28;20544;-78
2021/03/19 11:55:06;;;;;;;5.87;1.63;;;;;;;8.34;60.18;101932.72;5013271;28;20024;-78